createdAt,value
2022-09-14T00:00:24.181Z,14.48
2022-09-14T00:01:26.082Z,14.48
2022-09-14T00:02:24.518Z,14.48
2022-09-14T00:03:24.617Z,14.639999
2022-09-14T00:04:24.726Z,14.639999
2022-09-14T00:05:24.859Z,14.639999
2022-09-14T00:06:24.991Z,14.639999
2022-09-14T00:07:25.103Z,14.48
2022-09-14T00:08:25.243Z,14.639999
2022-09-14T00:09:25.415Z,14.639999
2022-09-14T00:10:25.513Z,14.639999
2022-09-14T00:11:25.585Z,14.639999
2022-09-14T00:12:25.753Z,14.639999
2022-09-14T00:13:25.889Z,14.639999
2022-09-14T00:14:26.056Z,14.639999
2022-09-14T00:15:26.214Z,14.639999
2022-09-14T00:16:26.358Z,14.639999
2022-09-14T00:17:26.465Z,14.639999
2022-09-14T00:18:26.619Z,14.719999
2022-09-14T00:19:26.769Z,14.639999
2022-09-14T00:20:26.915Z,14.639999
2022-09-14T00:21:27.030Z,14.639999
2022-09-14T00:22:27.158Z,14.639999
2022-09-14T00:23:27.331Z,14.639999
2022-09-14T00:24:27.424Z,14.639999
2022-09-14T00:25:27.563Z,14.48
2022-09-14T00:26:27.677Z,14.639999
2022-09-14T00:27:27.827Z,14.48
2022-09-14T00:28:27.978Z,14.48
2022-09-14T00:29:28.133Z,14.48
2022-09-14T00:30:28.288Z,14.639999
2022-09-14T00:31:28.461Z,14.48
2022-09-14T00:32:28.529Z,14.639999
2022-09-14T00:33:28.641Z,14.639999
2022-09-14T00:34:28.797Z,14.639999
2022-09-14T00:35:28.941Z,14.639999
2022-09-14T00:36:29.047Z,14.639999
2022-09-14T00:37:29.195Z,14.639999
2022-09-14T00:38:29.351Z,14.639999
2022-09-14T00:39:29.502Z,14.639999
2022-09-14T00:40:29.789Z,14.48
2022-09-14T00:41:29.797Z,14.48
2022-09-14T00:42:29.949Z,14.639999
2022-09-14T00:43:30.057Z,14.719999
2022-09-14T00:44:30.210Z,14.719999
2022-09-14T00:45:30.392Z,14.639999
2022-09-14T00:46:30.451Z,14.719999
2022-09-14T00:47:30.625Z,14.799999
2022-09-14T00:48:30.719Z,14.799999
2022-09-14T00:49:30.870Z,14.799999
2022-09-14T00:50:31.030Z,14.799999
2022-09-14T00:51:31.174Z,14.719999
2022-09-14T00:52:31.278Z,14.719999
2022-09-14T00:53:31.419Z,14.799999
2022-09-14T00:54:31.519Z,14.799999
2022-09-14T00:55:31.629Z,14.719999
2022-09-14T00:56:31.737Z,14.799999
2022-09-14T00:57:31.879Z,14.799999
2022-09-14T00:58:32.029Z,14.719999
2022-09-14T00:59:32.179Z,14.719999
2022-09-14T01:00:32.302Z,14.639999
2022-09-14T01:01:32.489Z,14.639999
2022-09-14T01:02:32.686Z,14.639999
2022-09-14T01:03:32.745Z,14.639999
2022-09-14T01:04:32.888Z,14.639999
2022-09-14T01:05:33.041Z,14.719999
2022-09-14T01:06:33.203Z,14.639999
2022-09-14T01:07:33.353Z,14.719999
2022-09-14T01:08:33.459Z,14.719999
2022-09-14T01:09:33.601Z,14.639999
2022-09-14T01:10:33.696Z,14.639999
2022-09-14T01:11:33.857Z,14.639999
2022-09-14T01:12:34.009Z,14.639999
2022-09-14T01:13:34.170Z,14.639999
2022-09-14T01:14:34.260Z,14.639999
2022-09-14T01:15:34.405Z,14.48
2022-09-14T01:16:34.569Z,14.639999
2022-09-14T01:17:34.661Z,14.48
2022-09-14T01:18:34.814Z,14.48
2022-09-14T01:19:34.962Z,14.48
2022-09-14T01:20:35.110Z,14.48
2022-09-14T01:21:35.279Z,14.48
2022-09-14T01:22:35.429Z,14.48
2022-09-14T01:23:35.580Z,14.32
2022-09-14T01:24:35.673Z,13.92
2022-09-14T01:25:35.836Z,13.84
2022-09-14T01:26:35.998Z,13.679999
2022-09-14T01:27:36.150Z,13.84
2022-09-14T01:28:36.243Z,13.92
2022-09-14T01:29:36.391Z,13.92
2022-09-14T01:30:36.546Z,13.92
2022-09-14T01:31:36.674Z,14
2022-09-14T01:32:36.734Z,14.08
2022-09-14T01:33:36.847Z,14
2022-09-14T01:34:36.998Z,14.08
2022-09-14T01:35:37.095Z,14.32
2022-09-14T01:36:37.260Z,14.24
2022-09-14T01:37:37.402Z,14.24
2022-09-14T01:38:37.555Z,14.32
2022-09-14T01:39:37.707Z,14.32
2022-09-14T01:40:37.854Z,14.32
2022-09-14T01:41:38.019Z,14.32
2022-09-14T01:42:38.168Z,14.32
2022-09-14T01:43:38.318Z,14.32
2022-09-14T01:44:38.482Z,14.48
2022-09-14T01:45:38.635Z,14.48
2022-09-14T01:46:38.708Z,14.639999
2022-09-14T01:47:38.822Z,14.639999
2022-09-14T01:48:39.009Z,14.48
2022-09-14T01:49:39.132Z,14.48
2022-09-14T01:50:39.273Z,14.48
2022-09-14T01:51:39.429Z,14.4
2022-09-14T01:52:39.587Z,14.32
2022-09-14T01:53:39.689Z,14.32
2022-09-14T01:54:39.835Z,14.32
2022-09-14T01:55:39.987Z,14.4
2022-09-14T01:56:40.130Z,14.4
2022-09-14T01:57:40.245Z,14.48
2022-09-14T01:58:40.399Z,14.4
2022-09-14T01:59:40.551Z,14.4
2022-09-14T02:00:40.682Z,14.4
2022-09-14T02:01:40.841Z,14.4
2022-09-14T02:02:40.950Z,14.32
2022-09-14T02:03:41.046Z,14.24
2022-09-14T02:04:41.193Z,14.08
2022-09-14T02:05:41.360Z,14.24
2022-09-14T02:06:41.508Z,14.32
2022-09-14T02:07:41.661Z,14
2022-09-14T02:08:41.806Z,14
2022-09-14T02:09:41.986Z,14
2022-09-14T02:10:42.122Z,14
2022-09-14T02:11:42.270Z,14
2022-09-14T02:12:42.378Z,14.08
2022-09-14T02:13:42.524Z,14.08
2022-09-14T02:14:42.666Z,14.08
2022-09-14T02:15:42.836Z,14.08
2022-09-14T02:16:43.009Z,14.08
2022-09-14T02:17:43.090Z,14.08
2022-09-14T02:18:43.235Z,14.08
2022-09-14T02:19:43.381Z,14.08
2022-09-14T02:20:43.533Z,14.08
2022-09-14T02:21:43.683Z,14.08
2022-09-14T02:22:43.795Z,14.24
2022-09-14T02:23:43.938Z,14.08
2022-09-14T02:24:44.084Z,14.24
2022-09-14T02:25:44.242Z,14.32
2022-09-14T02:26:44.405Z,14.4
2022-09-14T02:27:44.551Z,14.4
2022-09-14T02:28:44.708Z,14.4
2022-09-14T02:29:44.839Z,14.48
2022-09-14T02:30:45.002Z,14.48
2022-09-14T02:31:45.192Z,14.48
2022-09-14T02:32:45.244Z,14.4
2022-09-14T02:33:45.398Z,14.4
2022-09-14T02:34:45.522Z,14.48
2022-09-14T02:35:45.683Z,14.48
2022-09-14T02:36:45.912Z,14.48
2022-09-14T02:37:45.952Z,14.48
2022-09-14T02:38:46.110Z,14.48
2022-09-14T02:39:46.329Z,14.48
2022-09-14T02:40:46.426Z,14.48
2022-09-14T02:41:46.531Z,14.48
2022-09-14T02:42:46.670Z,14.639999
2022-09-14T02:43:46.941Z,14.639999
2022-09-14T02:44:46.982Z,14.48
2022-09-14T02:45:47.120Z,14.48
2022-09-14T02:46:47.320Z,14.639999
2022-09-14T02:47:47.336Z,14.639999
2022-09-14T02:48:47.485Z,14.719999
2022-09-14T02:49:47.631Z,14.719999
2022-09-14T02:50:47.802Z,14.719999
2022-09-14T02:51:47.944Z,14.719999
2022-09-14T02:52:48.099Z,14.719999
2022-09-14T02:53:48.245Z,14.719999
2022-09-14T02:54:48.343Z,14.719999
2022-09-14T02:55:48.500Z,14.719999
2022-09-14T02:56:48.647Z,14.799999
2022-09-14T02:57:48.802Z,14.799999
2022-09-14T02:58:48.952Z,14.719999
2022-09-14T02:59:49.107Z,14.799999
2022-09-14T03:00:49.269Z,14.719999
2022-09-14T03:01:49.419Z,14.799999
2022-09-14T03:02:49.513Z,14.799999
2022-09-14T03:03:49.664Z,14.799999
2022-09-14T03:04:49.804Z,14.799999
2022-09-14T03:05:49.976Z,14.799999
2022-09-14T03:06:50.124Z,14.799999
2022-09-14T03:07:50.291Z,14.88
2022-09-14T03:08:50.589Z,14.88
2022-09-14T03:09:50.573Z,14.88
2022-09-14T03:10:50.690Z,14.88
2022-09-14T03:11:50.818Z,15.04
2022-09-14T03:12:50.979Z,14.88
2022-09-14T03:13:51.118Z,14.88
2022-09-14T03:14:51.231Z,14.88
2022-09-14T03:15:51.416Z,15.04
2022-09-14T03:16:51.430Z,14.88
2022-09-14T03:17:51.595Z,14.88
2022-09-14T03:18:51.765Z,15.04
2022-09-14T03:19:51.849Z,14.88
2022-09-14T03:20:51.992Z,15.04
2022-09-14T03:21:52.139Z,14.88
2022-09-14T03:22:52.303Z,14.88
2022-09-14T03:23:52.448Z,14.88
2022-09-14T03:24:52.605Z,14.799999
2022-09-14T03:25:52.703Z,14.799999
2022-09-14T03:26:52.849Z,14.799999
2022-09-14T03:27:53.014Z,14.799999
2022-09-14T03:28:53.155Z,14.799999
2022-09-14T03:29:53.318Z,14.719999
2022-09-14T03:30:53.467Z,14.799999
2022-09-14T03:31:53.686Z,14.799999
2022-09-14T03:32:53.775Z,14.799999
2022-09-14T03:33:53.914Z,14.799999
2022-09-14T03:34:54.021Z,14.719999
2022-09-14T03:35:54.175Z,14.799999
2022-09-14T03:36:54.312Z,14.88
2022-09-14T03:37:54.486Z,14.799999
2022-09-14T03:38:54.582Z,14.719999
2022-09-14T03:39:54.776Z,14.719999
2022-09-14T03:40:54.835Z,14.639999
2022-09-14T03:41:54.939Z,14.639999
2022-09-14T03:42:55.105Z,14.639999
2022-09-14T03:43:55.242Z,14.639999
2022-09-14T03:44:55.337Z,14.48
2022-09-14T03:45:55.485Z,14.639999
2022-09-14T03:46:55.753Z,14.639999
2022-09-14T03:47:55.791Z,14.719999
2022-09-14T03:48:55.951Z,14.719999
2022-09-14T03:49:56.102Z,14.639999
2022-09-14T03:50:56.193Z,14.719999
2022-09-14T03:51:59.588Z,14.719999
2022-09-14T03:52:56.491Z,14.719999
2022-09-14T03:53:56.655Z,14.719999
2022-09-14T03:54:56.808Z,14.719999
2022-09-14T03:55:56.962Z,14.719999
2022-09-14T03:56:57.113Z,14.719999
2022-09-14T03:57:57.252Z,14.639999
2022-09-14T03:58:57.411Z,14.639999
2022-09-14T03:59:57.521Z,14.639999
2022-09-14T04:00:57.614Z,14.639999
2022-09-14T04:01:57.827Z,14.48
2022-09-14T04:02:58.138Z,14.639999
2022-09-14T04:03:58.063Z,14.639999
2022-09-14T04:04:58.224Z,14.639999
2022-09-14T04:05:58.374Z,14.48
2022-09-14T04:06:58.494Z,14.639999
2022-09-14T04:07:58.624Z,14.799999
2022-09-14T04:08:58.752Z,14.799999
2022-09-14T04:09:58.938Z,14.799999
2022-09-14T04:10:58.982Z,14.719999
2022-09-14T04:11:59.130Z,14.719999
2022-09-14T04:12:59.259Z,14.719999
2022-09-14T04:13:59.399Z,14.799999
2022-09-14T04:14:59.557Z,14.799999
2022-09-14T04:15:59.720Z,14.799999
2022-09-14T04:16:59.847Z,14.799999
2022-09-14T04:17:59.996Z,14.799999
2022-09-14T04:19:00.103Z,14.88
2022-09-14T04:20:00.262Z,14.799999
2022-09-14T04:21:02.441Z,14.88
2022-09-14T04:22:00.555Z,14.799999
2022-09-14T04:23:00.704Z,14.799999
2022-09-14T04:24:14.435Z,14.799999
2022-09-14T04:25:01.003Z,14.799999
2022-09-14T04:26:01.167Z,14.799999
2022-09-14T04:27:01.268Z,14.799999
2022-09-14T04:28:17.068Z,14.88
2022-09-14T04:29:01.563Z,14.799999
2022-09-14T04:30:01.729Z,14.799999
2022-09-14T04:31:01.892Z,14.799999
2022-09-14T04:32:02.028Z,14.799999
2022-09-14T04:33:02.176Z,14.799999
2022-09-14T04:34:02.278Z,14.799999
2022-09-14T04:35:02.427Z,14.719999
2022-09-14T04:36:02.585Z,14.639999
2022-09-14T04:37:02.742Z,14.639999
2022-09-14T04:38:02.893Z,14.639999
2022-09-14T04:39:03.040Z,14.639999
2022-09-14T04:40:03.275Z,14.639999
2022-09-14T04:41:03.340Z,14.48
2022-09-14T04:42:03.928Z,14.639999
2022-09-14T04:43:04.064Z,14.639999
2022-09-14T04:44:03.758Z,14.639999
2022-09-14T04:45:03.900Z,14.48
2022-09-14T04:46:04.063Z,14.4
2022-09-14T04:47:04.213Z,14.48
2022-09-14T04:48:04.363Z,14.4
2022-09-14T04:49:04.505Z,14.4
2022-09-14T04:50:04.659Z,14.4
2022-09-14T04:51:04.819Z,14.4
2022-09-14T04:52:04.972Z,14.32
2022-09-14T04:53:05.074Z,14.4
2022-09-14T04:54:05.210Z,14.32
2022-09-14T04:55:05.318Z,14.24
2022-09-14T04:56:05.463Z,14.24
2022-09-14T04:57:05.620Z,14.24
2022-09-14T04:58:05.775Z,14.24
2022-09-14T04:59:05.925Z,14.32
2022-09-14T05:00:06.032Z,14.24
2022-09-14T05:01:06.170Z,14.24
2022-09-14T05:02:06.328Z,14.24
2022-09-14T05:03:06.451Z,14.32
2022-09-14T05:04:06.538Z,14.32
2022-09-14T05:05:06.684Z,14.32
2022-09-14T05:06:06.794Z,14.4
2022-09-14T05:07:06.905Z,14.32
2022-09-14T05:08:07.042Z,14.4
2022-09-14T05:09:07.194Z,14.32
2022-09-14T05:10:07.348Z,14.32
2022-09-14T05:11:07.505Z,14.4
2022-09-14T05:12:07.650Z,14.4
2022-09-14T05:13:07.800Z,14.4
2022-09-14T05:14:07.959Z,14.4
2022-09-14T05:15:08.102Z,14.4
2022-09-14T05:16:08.292Z,14.48
2022-09-14T05:17:08.366Z,14.48
2022-09-14T05:18:08.501Z,14.48
2022-09-14T05:19:08.678Z,14.4
2022-09-14T05:20:08.810Z,14.32
2022-09-14T05:21:08.966Z,14.4
2022-09-14T05:22:09.108Z,14.4
2022-09-14T05:23:09.221Z,14.4
2022-09-14T05:24:09.371Z,14.4
2022-09-14T05:25:09.522Z,14.4
2022-09-14T05:26:09.681Z,14.48
2022-09-14T05:27:09.818Z,14.48
2022-09-14T05:28:09.983Z,14.4
2022-09-14T05:29:10.120Z,14.639999
2022-09-14T05:30:10.230Z,14.48
2022-09-14T05:31:10.425Z,14.48
2022-09-14T05:32:10.486Z,14.639999
2022-09-14T05:33:10.636Z,14.639999
2022-09-14T05:34:10.784Z,14.719999
2022-09-14T05:35:10.921Z,14.719999
2022-09-14T05:36:11.043Z,14.719999
2022-09-14T05:37:11.186Z,14.719999
2022-09-14T05:38:11.343Z,14.719999
2022-09-14T05:39:11.514Z,14.799999
2022-09-14T05:40:11.740Z,14.719999
2022-09-14T05:41:11.805Z,14.719999
2022-09-14T05:42:11.955Z,14.719999
2022-09-14T05:43:12.064Z,14.799999
2022-09-14T05:44:12.211Z,14.799999
2022-09-14T05:45:12.367Z,14.719999
2022-09-14T05:46:12.484Z,14.719999
2022-09-14T05:47:12.620Z,14.799999
2022-09-14T05:48:12.777Z,14.799999
2022-09-14T05:49:12.910Z,14.799999
2022-09-14T05:50:13.035Z,14.799999
2022-09-14T05:51:13.161Z,14.88
2022-09-14T05:52:13.333Z,14.88
2022-09-14T05:53:13.483Z,14.88
2022-09-14T05:54:13.625Z,15.04
2022-09-14T05:55:13.780Z,15.04
2022-09-14T05:56:13.938Z,14.88
2022-09-14T05:57:14.090Z,15.04
2022-09-14T05:58:14.230Z,15.12
2022-09-14T05:59:14.398Z,15.2
2022-09-14T06:00:14.562Z,15.2
2022-09-14T06:01:14.686Z,15.12
2022-09-14T06:02:17.951Z,15.12
2022-09-14T06:03:14.907Z,15.12
2022-09-14T06:04:15.043Z,15.2
2022-09-14T06:05:15.275Z,15.2
2022-09-14T06:06:15.286Z,15.2
2022-09-14T06:07:18.639Z,15.2
2022-09-14T06:08:15.547Z,15.28
2022-09-14T06:09:15.656Z,15.2
2022-09-14T06:10:15.772Z,15.2
2022-09-14T06:11:15.913Z,15.2
2022-09-14T06:12:16.059Z,15.28
2022-09-14T06:13:16.219Z,15.28
2022-09-14T06:14:16.360Z,15.28
2022-09-14T06:15:16.531Z,15.28
2022-09-14T06:16:16.660Z,15.28
2022-09-14T06:17:16.834Z,15.44
2022-09-14T06:18:16.983Z,15.44
2022-09-14T06:19:17.135Z,15.44
2022-09-14T06:20:17.267Z,15.44
2022-09-14T06:21:17.427Z,15.599999
2022-09-14T06:22:17.526Z,15.52
2022-09-14T06:23:17.683Z,15.52
2022-09-14T06:24:17.830Z,15.599999
2022-09-14T06:25:17.988Z,15.599999
2022-09-14T06:26:18.134Z,15.679999
2022-09-14T06:27:18.241Z,15.679999
2022-09-14T06:28:18.385Z,15.679999
2022-09-14T06:29:18.534Z,15.599999
2022-09-14T06:30:18.686Z,15.599999
2022-09-14T06:31:18.833Z,15.679999
2022-09-14T06:32:18.932Z,15.839999
2022-09-14T06:33:19.110Z,15.839999
2022-09-14T06:34:19.255Z,15.92
2022-09-14T06:35:19.408Z,15.92
2022-09-14T06:36:19.507Z,15.92
2022-09-14T06:37:19.602Z,15.92
2022-09-14T06:38:19.760Z,15.92
2022-09-14T06:39:19.912Z,16
2022-09-14T06:40:20.096Z,16.08
2022-09-14T06:41:20.170Z,16.24
2022-09-14T06:42:20.267Z,16.08
2022-09-14T06:43:20.384Z,16.08
2022-09-14T06:44:20.492Z,16.24
2022-09-14T06:45:20.621Z,16.08
2022-09-14T06:46:20.761Z,16
2022-09-14T06:47:20.923Z,16.08
2022-09-14T06:48:21.070Z,16
2022-09-14T06:49:21.230Z,16
2022-09-14T06:50:21.386Z,16.08
2022-09-14T06:51:21.533Z,16.08
2022-09-14T06:52:21.675Z,16.24
2022-09-14T06:53:21.770Z,16.24
2022-09-14T06:54:21.887Z,16.24
2022-09-14T06:55:22.039Z,16.24
2022-09-14T06:56:22.195Z,16.24
2022-09-14T06:57:22.281Z,16.24
2022-09-14T06:58:22.442Z,16.32
2022-09-14T06:59:22.598Z,16.24
2022-09-14T07:00:22.704Z,16.24
2022-09-14T07:01:22.842Z,16.32
2022-09-14T07:02:23.049Z,16.32
2022-09-14T07:03:23.106Z,16.24
2022-09-14T07:04:23.275Z,16.32
2022-09-14T07:05:23.374Z,16.32
2022-09-14T07:06:23.570Z,16.24
2022-09-14T07:07:23.704Z,16.24
2022-09-14T07:08:23.867Z,16.24
2022-09-14T07:09:24.020Z,16.24
2022-09-14T07:10:24.173Z,16.08
2022-09-14T07:11:24.318Z,16.24
2022-09-14T07:12:24.415Z,16.24
2022-09-14T07:13:24.577Z,16.24
2022-09-14T07:14:24.730Z,16.48
2022-09-14T07:15:24.878Z,16.4
2022-09-14T07:16:25.019Z,16.4
2022-09-14T07:17:25.127Z,16.4
2022-09-14T07:18:25.228Z,16.48
2022-09-14T07:19:25.335Z,16.4
2022-09-14T07:20:25.491Z,16.4
2022-09-14T07:21:25.650Z,16.48
2022-09-14T07:22:25.788Z,16.32
2022-09-14T07:23:25.940Z,16.24
2022-09-14T07:24:26.102Z,16.4
2022-09-14T07:25:26.250Z,16.4
2022-09-14T07:26:26.396Z,16.4
2022-09-14T07:27:26.563Z,16.4
2022-09-14T07:28:26.852Z,16.4
2022-09-14T07:29:26.996Z,16.4
2022-09-14T07:30:27.213Z,16.64
2022-09-14T07:31:27.353Z,16.48
2022-09-14T07:32:27.413Z,16.48
2022-09-14T07:33:27.559Z,16.4
2022-09-14T07:34:27.698Z,16.32
2022-09-14T07:35:27.801Z,16.32
2022-09-14T07:36:30.448Z,16.4
2022-09-14T07:37:28.087Z,16.4
2022-09-14T07:38:48.448Z,16.4
2022-09-14T07:39:28.307Z,16.4
2022-09-14T07:40:28.526Z,16.48
2022-09-14T07:41:28.620Z,16.48
2022-09-14T07:42:29.365Z,16.32
2022-09-14T07:43:28.923Z,16.24
2022-09-14T07:44:29.056Z,16.24
2022-09-14T07:45:29.132Z,16.24
2022-09-14T07:46:29.271Z,16.08
2022-09-14T07:47:29.431Z,16.08
2022-09-14T07:48:29.604Z,16.24
2022-09-14T07:49:29.738Z,16.24
2022-09-14T07:50:29.880Z,16.32
2022-09-14T07:51:29.984Z,16.32
2022-09-14T07:52:30.081Z,16.32
2022-09-14T07:53:30.194Z,16.32
2022-09-14T07:54:30.340Z,16.32
2022-09-14T07:55:30.489Z,16.32
2022-09-14T07:56:30.672Z,16.32
2022-09-14T07:57:52.496Z,16.32
2022-09-14T07:58:30.964Z,16.4
2022-09-14T07:59:36.738Z,16.4
2022-09-14T08:00:31.278Z,16.4
2022-09-14T08:01:31.397Z,16.4
2022-09-14T08:02:31.591Z,16.4
2022-09-14T08:03:31.625Z,16.4
2022-09-14T08:04:31.765Z,16.4
2022-09-14T08:05:31.932Z,16.4
2022-09-14T08:06:32.066Z,16.4
2022-09-14T08:07:32.231Z,16.4
2022-09-14T08:08:32.370Z,16.32
2022-09-14T08:09:32.522Z,16.24
2022-09-14T08:10:32.626Z,16.24
2022-09-14T08:11:32.730Z,16.24
2022-09-14T08:12:32.877Z,16.32
2022-09-14T08:13:33.037Z,16.32
2022-09-14T08:14:33.187Z,16.32
2022-09-14T08:15:33.333Z,16.4
2022-09-14T08:16:33.525Z,16.4
2022-09-14T08:17:33.652Z,16.48
2022-09-14T08:18:33.793Z,16.32
2022-09-14T08:19:33.946Z,16.32
2022-09-14T08:20:34.097Z,16.4
2022-09-14T08:21:34.242Z,16.4
2022-09-14T08:22:34.395Z,16.64
2022-09-14T08:23:34.501Z,16.72
2022-09-14T08:24:34.652Z,16.8
2022-09-14T08:25:34.793Z,17.04
2022-09-14T08:26:34.960Z,16.88
2022-09-14T08:27:35.112Z,16.8
2022-09-14T08:28:35.258Z,16.8
2022-09-14T08:29:35.363Z,16.8
2022-09-14T08:30:35.509Z,16.8
2022-09-14T08:31:35.699Z,16.88
2022-09-14T08:32:35.753Z,16.88
2022-09-14T08:33:35.923Z,17.04
2022-09-14T08:34:36.078Z,17.04
2022-09-14T08:35:56.834Z,17.2
2022-09-14T08:36:36.389Z,17.2
2022-09-14T08:37:36.564Z,17.28
2022-09-14T08:38:36.718Z,17.2
2022-09-14T08:39:36.882Z,16.88
2022-09-14T08:40:37.077Z,16.8
2022-09-14T08:41:37.195Z,16.8
2022-09-14T08:42:37.338Z,16.88
2022-09-14T08:43:37.488Z,17.12
2022-09-14T08:44:37.585Z,17.04
2022-09-14T08:45:37.742Z,17.04
2022-09-14T08:46:37.830Z,17.04
2022-09-14T08:47:37.933Z,17.04
2022-09-14T08:48:38.083Z,17.04
2022-09-14T08:49:38.252Z,17.04
2022-09-14T08:50:39.016Z,17.2
2022-09-14T08:51:38.554Z,17.12
2022-09-14T08:52:38.705Z,17.04
2022-09-14T08:53:38.866Z,17.04
2022-09-14T08:54:38.959Z,16.88
2022-09-14T08:55:39.110Z,16.88
2022-09-14T08:56:39.265Z,16.8
2022-09-14T08:57:39.412Z,17.04
2022-09-14T08:58:45.221Z,17.04
2022-09-14T08:59:39.715Z,17.04
2022-09-14T09:00:39.887Z,16.88
2022-09-14T09:01:39.960Z,16.88
2022-09-14T09:02:40.114Z,16.8
2022-09-14T09:03:40.572Z,16.72
2022-09-14T09:04:40.430Z,16.72
2022-09-14T09:05:40.588Z,16.8
2022-09-14T09:06:40.684Z,17.04
2022-09-14T09:07:40.777Z,17.04
2022-09-14T09:08:41.003Z,17.2
2022-09-14T09:09:41.090Z,17.2
2022-09-14T09:10:41.265Z,17.04
2022-09-14T09:11:41.380Z,17.04
2022-09-14T09:12:41.553Z,17.2
2022-09-14T09:13:41.701Z,17.28
2022-09-14T09:14:41.856Z,17.2
2022-09-14T09:15:41.996Z,17.28
2022-09-14T09:16:42.179Z,17.12
2022-09-14T09:17:42.240Z,17.2
2022-09-14T09:18:42.441Z,17.28
2022-09-14T09:19:42.547Z,17.28
2022-09-14T09:20:42.694Z,17.52
2022-09-14T09:21:42.811Z,17.68
2022-09-14T09:22:42.970Z,17.68
2022-09-14T09:23:43.113Z,17.92
2022-09-14T09:24:43.225Z,17.68
2022-09-14T09:25:43.363Z,17.52
2022-09-14T09:26:43.488Z,17.52
2022-09-14T09:27:43.572Z,17.68
2022-09-14T09:28:43.912Z,17.76
2022-09-14T09:29:44.036Z,17.6
2022-09-14T09:30:44.184Z,17.52
2022-09-14T09:31:44.377Z,17.68
2022-09-14T09:32:44.436Z,18
2022-09-14T09:33:44.556Z,18.08
2022-09-14T09:34:44.642Z,17.76
2022-09-14T09:35:44.733Z,17.6
2022-09-14T09:36:44.883Z,17.68
2022-09-14T09:37:45.040Z,17.6
2022-09-14T09:38:45.191Z,17.28
2022-09-14T09:39:45.413Z,17.52
2022-09-14T09:40:45.495Z,17.44
2022-09-14T09:41:45.641Z,17.6
2022-09-14T09:42:45.814Z,17.44
2022-09-14T09:43:49.568Z,17.52
2022-09-14T09:44:46.105Z,17.68
2022-09-14T09:45:46.239Z,17.6
2022-09-14T09:46:46.477Z,17.52
2022-09-14T09:47:46.573Z,17.44
2022-09-14T09:48:46.707Z,17.44
2022-09-14T09:49:46.868Z,17.44
2022-09-14T09:50:47.012Z,17.52
2022-09-14T09:51:47.167Z,17.52
2022-09-14T09:52:47.314Z,17.52
2022-09-14T09:53:47.468Z,17.52
2022-09-14T09:54:47.573Z,17.52
2022-09-14T09:55:47.676Z,17.28
2022-09-14T09:56:47.819Z,17.28
2022-09-14T09:57:47.973Z,17.44
2022-09-14T09:58:48.125Z,17.44
2022-09-14T09:59:48.282Z,17.44
2022-09-14T10:00:48.439Z,17.52
2022-09-14T10:01:48.653Z,17.52
2022-09-14T10:02:48.689Z,17.52
2022-09-14T10:03:48.839Z,17.28
2022-09-14T10:04:48.949Z,17.2
2022-09-14T10:05:49.091Z,17.12
2022-09-14T10:06:49.244Z,17.2
2022-09-14T10:07:49.346Z,17.12
2022-09-14T10:08:49.504Z,17.2
2022-09-14T10:09:49.647Z,17.2
2022-09-14T10:10:49.793Z,17.2
2022-09-14T10:11:49.963Z,17.2
2022-09-14T10:12:50.113Z,17.2
2022-09-14T10:13:50.253Z,17.2
2022-09-14T10:14:50.406Z,17.28
2022-09-14T10:15:50.591Z,17.2
2022-09-14T10:16:50.668Z,17.28
2022-09-14T10:17:50.778Z,17.2
2022-09-14T10:18:51.068Z,17.44
2022-09-14T10:19:51.070Z,17.2
2022-09-14T10:20:51.215Z,17.28
2022-09-14T10:21:51.370Z,17.28
2022-09-14T10:22:51.473Z,17.28
2022-09-14T10:23:51.633Z,17.28
2022-09-14T10:24:51.681Z,17.52
2022-09-14T10:25:51.834Z,17.6
2022-09-14T10:26:51.983Z,17.6
2022-09-14T10:27:52.133Z,17.6
2022-09-14T10:28:52.332Z,17.92
2022-09-14T10:29:52.401Z,17.92
2022-09-14T10:30:52.585Z,17.68
2022-09-14T10:31:52.707Z,17.52
2022-09-14T10:32:52.841Z,17.52
2022-09-14T10:33:52.980Z,17.44
2022-09-14T10:34:53.145Z,17.44
2022-09-14T10:35:53.294Z,17.52
2022-09-14T10:36:53.443Z,17.52
2022-09-14T10:37:53.547Z,17.6
2022-09-14T10:38:53.702Z,17.6
2022-09-14T10:39:53.894Z,17.6
2022-09-14T10:40:54.009Z,17.6
2022-09-14T10:41:54.156Z,17.76
2022-09-14T10:42:54.315Z,17.52
2022-09-14T10:43:54.462Z,17.28
2022-09-14T10:44:54.616Z,17.52
2022-09-14T10:45:54.750Z,17.52
2022-09-14T10:46:54.904Z,17.44
2022-09-14T10:47:55.016Z,17.6
2022-09-14T10:48:55.168Z,17.6
2022-09-14T10:49:55.337Z,17.52
2022-09-14T10:50:55.509Z,17.52
2022-09-14T10:51:55.602Z,17.6
2022-09-14T10:52:55.963Z,17.6
2022-09-14T10:53:55.874Z,17.52
2022-09-14T10:54:56.028Z,17.6
2022-09-14T10:55:56.187Z,17.52
2022-09-14T10:56:56.341Z,17.44
2022-09-14T10:57:56.488Z,17.28
2022-09-14T10:58:56.633Z,17.52
2022-09-14T10:59:56.793Z,17.52
2022-09-14T11:00:56.931Z,17.44
2022-09-14T11:01:57.213Z,17.52
2022-09-14T11:02:57.293Z,17.44
2022-09-14T11:03:57.292Z,17.6
2022-09-14T11:04:57.448Z,17.6
2022-09-14T11:05:57.600Z,17.44
2022-09-14T11:06:57.757Z,17.52
2022-09-14T11:07:57.863Z,17.6
2022-09-14T11:08:58.003Z,17.6
2022-09-14T11:09:58.172Z,17.6
2022-09-14T11:10:58.281Z,17.6
2022-09-14T11:11:58.363Z,17.52
2022-09-14T11:12:58.470Z,17.6
2022-09-14T11:13:58.579Z,17.68
2022-09-14T11:14:58.718Z,17.68
2022-09-14T11:15:58.905Z,17.6
2022-09-14T11:16:59.023Z,17.52
2022-09-14T11:17:59.201Z,17.44
2022-09-14T11:18:59.321Z,17.52
2022-09-14T11:19:59.487Z,17.44
2022-09-14T11:20:59.634Z,17.44
2022-09-14T11:21:59.795Z,17.52
2022-09-14T11:22:59.885Z,17.6
2022-09-14T11:24:00.075Z,17.6
2022-09-14T11:25:00.147Z,17.76
2022-09-14T11:26:00.297Z,17.76
2022-09-14T11:27:00.438Z,17.52
2022-09-14T11:28:00.582Z,17.52
2022-09-14T11:29:01.435Z,17.52
2022-09-14T11:30:00.856Z,17.44
2022-09-14T11:31:01.036Z,17.44
2022-09-14T11:32:19.632Z,17.44
2022-09-14T11:33:01.243Z,17.44
2022-09-14T11:34:01.377Z,17.52
2022-09-14T11:35:01.508Z,17.28
2022-09-14T11:36:01.659Z,17.28
2022-09-14T11:37:01.814Z,17.52
2022-09-14T11:38:01.967Z,17.44
2022-09-14T11:39:06.122Z,17.28
2022-09-14T11:40:02.288Z,17.2
2022-09-14T11:41:02.411Z,17.2
2022-09-14T11:42:02.578Z,17.2
2022-09-14T11:43:02.747Z,17.28
2022-09-14T11:44:02.860Z,17.2
2022-09-14T11:45:03.027Z,17.28
2022-09-14T11:46:03.204Z,17.12
2022-09-14T11:47:03.314Z,17.2
2022-09-14T11:48:03.419Z,17.2
2022-09-14T11:49:03.586Z,17.2
2022-09-14T11:50:03.724Z,17.2
2022-09-14T11:51:03.885Z,17.12
2022-09-14T11:52:04.021Z,17.04
2022-09-14T11:53:04.128Z,17.12
2022-09-14T11:54:04.287Z,17.2
2022-09-14T11:55:04.442Z,17.28
2022-09-14T11:56:04.595Z,17.2
2022-09-14T11:57:04.685Z,17.28
2022-09-14T11:58:04.845Z,17.28
2022-09-14T11:59:04.975Z,17.44
2022-09-14T12:00:05.096Z,17.44
2022-09-14T12:01:05.238Z,17.52
2022-09-14T12:02:05.346Z,17.68
2022-09-14T12:03:05.573Z,17.76
2022-09-14T12:04:05.698Z,18
2022-09-14T12:05:05.805Z,18
2022-09-14T12:06:05.963Z,18
2022-09-14T12:07:06.117Z,18.08
2022-09-14T12:08:06.271Z,18
2022-09-14T12:09:06.410Z,17.92
2022-09-14T12:10:06.611Z,18.08
2022-09-14T12:11:06.728Z,17.92
2022-09-14T12:12:06.874Z,17.92
2022-09-14T12:13:07.023Z,18.08
2022-09-14T12:14:07.173Z,18.32
2022-09-14T12:15:07.339Z,18.32
2022-09-14T12:16:07.496Z,18
2022-09-14T12:17:22.726Z,18
2022-09-14T12:18:07.792Z,18.24
2022-09-14T12:19:07.902Z,18.24
2022-09-14T12:20:08.094Z,18.32
2022-09-14T12:21:08.203Z,18.32
2022-09-14T12:22:08.342Z,18
2022-09-14T12:23:08.494Z,17.76
2022-09-14T12:24:08.673Z,17.68
2022-09-14T12:25:08.805Z,17.68
2022-09-14T12:26:08.907Z,17.92
2022-09-14T12:27:09.040Z,17.92
2022-09-14T12:28:09.204Z,17.68
2022-09-14T12:29:09.357Z,17.6
2022-09-14T12:30:09.470Z,17.68
2022-09-14T12:31:09.565Z,17.6
2022-09-14T12:32:09.704Z,17.68
2022-09-14T12:33:09.811Z,17.68
2022-09-14T12:34:09.952Z,17.76
2022-09-14T12:35:10.056Z,17.68
2022-09-14T12:36:10.220Z,17.68